sensor_id;sensor_type;location;lat;lon;timestamp;P1;durP1;ratioP1;P2;durP2;ratioP2
26750;SDS011;14345;48.272;25.926;2023-05-28T00:01:10;8.13;;;3.08;;
26750;SDS011;14345;48.272;25.926;2023-05-28T00:03:36;3.35;;;2.50;;
26750;SDS011;14345;48.272;25.926;2023-05-28T00:06:02;6.68;;;3.28;;
26750;SDS011;14345;48.272;25.926;2023-05-28T00:08:29;11.73;;;2.83;;
26750;SDS011;14345;48.272;25.926;2023-05-28T00:10:55;10.63;;;3.70;;
26750;SDS011;14345;48.272;25.926;2023-05-28T00:13:25;3.55;;;2.50;;
26750;SDS011;14345;48.272;25.926;2023-05-28T00:15:51;3.88;;;2.60;;
26750;SDS011;14345;48.272;25.926;2023-05-28T00:18:17;6.57;;;3.22;;
26750;SDS011;14345;48.272;25.926;2023-05-28T00:20:43;5.13;;;3.28;;
26750;SDS011;14345;48.272;25.926;2023-05-28T00:23:10;8.65;;;3.40;;
26750;SDS011;14345;48.272;25.926;2023-05-28T00:25:36;7.78;;;3.78;;
26750;SDS011;14345;48.272;25.926;2023-05-28T00:28:02;6.20;;;3.10;;
26750;SDS011;14345;48.272;25.926;2023-05-28T00:30:28;7.07;;;3.00;;
26750;SDS011;14345;48.272;25.926;2023-05-28T00:32:54;5.82;;;3.38;;
26750;SDS011;14345;48.272;25.926;2023-05-28T00:35:20;8.32;;;3.40;;
26750;SDS011;14345;48.272;25.926;2023-05-28T00:37:46;7.53;;;3.60;;
26750;SDS011;14345;48.272;25.926;2023-05-28T00:40:12;6.93;;;3.17;;
26750;SDS011;14345;48.272;25.926;2023-05-28T00:42:42;5.45;;;3.38;;
26750;SDS011;14345;48.272;25.926;2023-05-28T00:45:09;5.18;;;3.20;;
26750;SDS011;14345;48.272;25.926;2023-05-28T00:47:36;4.13;;;2.40;;
26750;SDS011;14345;48.272;25.926;2023-05-28T00:50:02;6.18;;;3.50;;
26750;SDS011;14345;48.272;25.926;2023-05-28T00:52:29;5.88;;;3.25;;
26750;SDS011;14345;48.272;25.926;2023-05-28T00:54:55;6.35;;;3.15;;
26750;SDS011;14345;48.272;25.926;2023-05-28T00:57:21;3.90;;;2.63;;
26750;SDS011;14345;48.272;25.926;2023-05-28T00:59:50;6.15;;;3.15;;
26750;SDS011;14345;48.272;25.926;2023-05-28T01:02:16;6.90;;;3.22;;
26750;SDS011;14345;48.272;25.926;2023-05-28T01:04:42;5.45;;;2.75;;
26750;SDS011;14345;48.272;25.926;2023-05-28T01:07:08;5.97;;;2.78;;
26750;SDS011;14345;48.272;25.926;2023-05-28T01:09:35;5.70;;;2.90;;
26750;SDS011;14345;48.272;25.926;2023-05-28T01:12:01;5.78;;;2.95;;
26750;SDS011;14345;48.272;25.926;2023-05-28T01:14:27;6.60;;;3.13;;
26750;SDS011;14345;48.272;25.926;2023-05-28T01:16:55;5.70;;;3.30;;
26750;SDS011;14345;48.272;25.926;2023-05-28T01:19:23;5.72;;;3.20;;
26750;SDS011;14345;48.272;25.926;2023-05-28T01:21:55;8.73;;;3.70;;
26750;SDS011;14345;48.272;25.926;2023-05-28T01:24:22;6.82;;;3.38;;
26750;SDS011;14345;48.272;25.926;2023-05-28T01:27:01;8.27;;;3.10;;
26750;SDS011;14345;48.272;25.926;2023-05-28T01:29:27;7.95;;;3.33;;
26750;SDS011;14345;48.272;25.926;2023-05-28T01:31:53;8.25;;;3.55;;
26750;SDS011;14345;48.272;25.926;2023-05-28T01:34:19;6.00;;;3.15;;
26750;SDS011;14345;48.272;25.926;2023-05-28T01:39:21;6.13;;;3.13;;
26750;SDS011;14345;48.272;25.926;2023-05-28T01:41:50;5.45;;;3.00;;
26750;SDS011;14345;48.272;25.926;2023-05-28T01:44:17;6.65;;;3.00;;
26750;SDS011;14345;48.272;25.926;2023-05-28T01:46:44;7.10;;;3.13;;
26750;SDS011;14345;48.272;25.926;2023-05-28T01:49:11;4.78;;;2.80;;
26750;SDS011;14345;48.272;25.926;2023-05-28T01:51:37;4.97;;;2.97;;
26750;SDS011;14345;48.272;25.926;2023-05-28T01:54:03;4.60;;;2.83;;
26750;SDS011;14345;48.272;25.926;2023-05-28T01:56:30;7.90;;;3.40;;
26750;SDS011;14345;48.272;25.926;2023-05-28T01:58:56;6.00;;;3.50;;
26750;SDS011;14345;48.272;25.926;2023-05-28T02:01:29;6.07;;;3.42;;
26750;SDS011;14345;48.272;25.926;2023-05-28T02:03:56;6.30;;;3.40;;
26750;SDS011;14345;48.272;25.926;2023-05-28T02:06:23;3.90;;;2.92;;
26750;SDS011;14345;48.272;25.926;2023-05-28T02:08:49;9.38;;;2.83;;
26750;SDS011;14345;48.272;25.926;2023-05-28T02:11:15;4.78;;;2.63;;
26750;SDS011;14345;48.272;25.926;2023-05-28T02:13:41;5.20;;;3.00;;
26750;SDS011;14345;48.272;25.926;2023-05-28T02:16:09;7.90;;;3.25;;
26750;SDS011;14345;48.272;25.926;2023-05-28T02:18:36;6.38;;;3.30;;
26750;SDS011;14345;48.272;25.926;2023-05-28T02:21:02;6.30;;;2.92;;
26750;SDS011;14345;48.272;25.926;2023-05-28T02:23:28;6.85;;;3.25;;
26750;SDS011;14345;48.272;25.926;2023-05-28T02:25:55;5.57;;;3.30;;
26750;SDS011;14345;48.272;25.926;2023-05-28T02:28:21;6.88;;;3.30;;
26750;SDS011;14345;48.272;25.926;2023-05-28T02:30:47;3.58;;;2.83;;
26750;SDS011;14345;48.272;25.926;2023-05-28T02:33:13;6.22;;;3.08;;
26750;SDS011;14345;48.272;25.926;2023-05-28T02:35:39;3.85;;;2.97;;
26750;SDS011;14345;48.272;25.926;2023-05-28T02:38:05;4.68;;;2.97;;
26750;SDS011;14345;48.272;25.926;2023-05-28T02:40:31;7.07;;;3.55;;
26750;SDS011;14345;48.272;25.926;2023-05-28T02:42:57;5.25;;;3.17;;
26750;SDS011;14345;48.272;25.926;2023-05-28T02:45:23;7.68;;;3.92;;
26750;SDS011;14345;48.272;25.926;2023-05-28T02:47:49;6.97;;;3.08;;
26750;SDS011;14345;48.272;25.926;2023-05-28T02:50:15;6.95;;;2.70;;
26750;SDS011;14345;48.272;25.926;2023-05-28T02:52:41;4.82;;;2.92;;
26750;SDS011;14345;48.272;25.926;2023-05-28T02:55:07;5.47;;;2.85;;
26750;SDS011;14345;48.272;25.926;2023-05-28T02:57:33;7.97;;;2.95;;
26750;SDS011;14345;48.272;25.926;2023-05-28T02:59:59;5.13;;;3.00;;
26750;SDS011;14345;48.272;25.926;2023-05-28T03:02:25;6.32;;;2.65;;
26750;SDS011;14345;48.272;25.926;2023-05-28T03:04:51;8.18;;;3.17;;
26750;SDS011;14345;48.272;25.926;2023-05-28T03:07:18;7.05;;;2.70;;
26750;SDS011;14345;48.272;25.926;2023-05-28T03:09:44;7.50;;;2.72;;
26750;SDS011;14345;48.272;25.926;2023-05-28T03:12:10;5.47;;;2.80;;
26750;SDS011;14345;48.272;25.926;2023-05-28T03:14:36;6.18;;;3.00;;
26750;SDS011;14345;48.272;25.926;2023-05-28T03:17:02;4.30;;;2.65;;
26750;SDS011;14345;48.272;25.926;2023-05-28T03:19:28;4.88;;;3.03;;
26750;SDS011;14345;48.272;25.926;2023-05-28T03:21:54;5.50;;;2.63;;
26750;SDS011;14345;48.272;25.926;2023-05-28T03:24:20;5.28;;;3.08;;
26750;SDS011;14345;48.272;25.926;2023-05-28T03:26:46;5.18;;;3.10;;
26750;SDS011;14345;48.272;25.926;2023-05-28T03:29:12;6.75;;;3.08;;
26750;SDS011;14345;48.272;25.926;2023-05-28T03:31:42;4.90;;;2.70;;
26750;SDS011;14345;48.272;25.926;2023-05-28T03:34:09;4.32;;;2.90;;
26750;SDS011;14345;48.272;25.926;2023-05-28T03:36:35;4.30;;;2.90;;
26750;SDS011;14345;48.272;25.926;2023-05-28T03:39:02;7.22;;;3.00;;
26750;SDS011;14345;48.272;25.926;2023-05-28T03:41:29;7.63;;;2.70;;
26750;SDS011;14345;48.272;25.926;2023-05-28T03:43:55;7.60;;;3.00;;
26750;SDS011;14345;48.272;25.926;2023-05-28T03:46:21;5.78;;;2.83;;
26750;SDS011;14345;48.272;25.926;2023-05-28T03:48:47;7.28;;;2.75;;
26750;SDS011;14345;48.272;25.926;2023-05-28T03:51:13;6.63;;;3.25;;
26750;SDS011;14345;48.272;25.926;2023-05-28T03:53:40;9.65;;;3.40;;
26750;SDS011;14345;48.272;25.926;2023-05-28T03:56:06;4.50;;;2.90;;
26750;SDS011;14345;48.272;25.926;2023-05-28T03:58:32;5.70;;;3.35;;
26750;SDS011;14345;48.272;25.926;2023-05-28T04:00:58;5.13;;;2.45;;
26750;SDS011;14345;48.272;25.926;2023-05-28T04:03:24;4.63;;;2.70;;
26750;SDS011;14345;48.272;25.926;2023-05-28T04:05:50;8.23;;;2.72;;
26750;SDS011;14345;48.272;25.926;2023-05-28T04:08:17;4.60;;;2.67;;
26750;SDS011;14345;48.272;25.926;2023-05-28T04:10:43;9.77;;;3.15;;
26750;SDS011;14345;48.272;25.926;2023-05-28T04:13:09;4.65;;;2.65;;
26750;SDS011;14345;48.272;25.926;2023-05-28T04:15:35;7.18;;;3.20;;
26750;SDS011;14345;48.272;25.926;2023-05-28T04:18:01;7.93;;;3.00;;
26750;SDS011;14345;48.272;25.926;2023-05-28T04:20:27;8.23;;;2.60;;
26750;SDS011;14345;48.272;25.926;2023-05-28T04:22:54;7.03;;;3.10;;
26750;SDS011;14345;48.272;25.926;2023-05-28T04:25:20;5.90;;;2.75;;
26750;SDS011;14345;48.272;25.926;2023-05-28T04:27:46;38.20;;;3.58;;
26750;SDS011;14345;48.272;25.926;2023-05-28T04:30:12;6.75;;;2.78;;
26750;SDS011;14345;48.272;25.926;2023-05-28T04:32:38;5.05;;;2.63;;
26750;SDS011;14345;48.272;25.926;2023-05-28T04:35:05;6.50;;;2.97;;
26750;SDS011;14345;48.272;25.926;2023-05-28T04:37:33;5.10;;;3.20;;
26750;SDS011;14345;48.272;25.926;2023-05-28T04:40:02;14.63;;;3.80;;
26750;SDS011;14345;48.272;25.926;2023-05-28T04:42:29;7.95;;;3.70;;
26750;SDS011;14345;48.272;25.926;2023-05-28T04:44:55;6.38;;;2.97;;
26750;SDS011;14345;48.272;25.926;2023-05-28T04:47:23;5.20;;;3.03;;
26750;SDS011;14345;48.272;25.926;2023-05-28T04:49:49;7.93;;;2.80;;
26750;SDS011;14345;48.272;25.926;2023-05-28T04:52:16;5.15;;;2.90;;
26750;SDS011;14345;48.272;25.926;2023-05-28T04:54:44;4.38;;;2.78;;
26750;SDS011;14345;48.272;25.926;2023-05-28T04:57:10;7.53;;;2.42;;
26750;SDS011;14345;48.272;25.926;2023-05-28T04:59:36;7.47;;;2.63;;
26750;SDS011;14345;48.272;25.926;2023-05-28T05:02:03;7.40;;;3.05;;
26750;SDS011;14345;48.272;25.926;2023-05-28T05:04:29;4.32;;;2.80;;
26750;SDS011;14345;48.272;25.926;2023-05-28T05:06:55;8.25;;;3.33;;
26750;SDS011;14345;48.272;25.926;2023-05-28T05:09:21;6.97;;;3.35;;
26750;SDS011;14345;48.272;25.926;2023-05-28T05:11:48;8.50;;;4.45;;
26750;SDS011;14345;48.272;25.926;2023-05-28T05:14:14;8.52;;;3.90;;
26750;SDS011;14345;48.272;25.926;2023-05-28T05:16:40;9.20;;;3.53;;
26750;SDS011;14345;48.272;25.926;2023-05-28T05:19:06;10.70;;;3.75;;
26750;SDS011;14345;48.272;25.926;2023-05-28T05:21:32;5.38;;;3.10;;
26750;SDS011;14345;48.272;25.926;2023-05-28T05:23:58;5.85;;;2.97;;
26750;SDS011;14345;48.272;25.926;2023-05-28T05:26:24;4.47;;;2.65;;
26750;SDS011;14345;48.272;25.926;2023-05-28T05:28:50;6.88;;;3.05;;
26750;SDS011;14345;48.272;25.926;2023-05-28T05:31:16;7.60;;;3.50;;
26750;SDS011;14345;48.272;25.926;2023-05-28T05:33:42;7.18;;;3.10;;
26750;SDS011;14345;48.272;25.926;2023-05-28T05:36:09;7.35;;;3.33;;
26750;SDS011;14345;48.272;25.926;2023-05-28T05:38:36;8.25;;;3.60;;
26750;SDS011;14345;48.272;25.926;2023-05-28T05:41:02;9.23;;;4.00;;
26750;SDS011;14345;48.272;25.926;2023-05-28T05:43:28;5.38;;;3.50;;
26750;SDS011;14345;48.272;25.926;2023-05-28T05:45:54;6.00;;;3.05;;
26750;SDS011;14345;48.272;25.926;2023-05-28T05:48:20;4.38;;;3.00;;
26750;SDS011;14345;48.272;25.926;2023-05-28T05:50:47;5.90;;;3.20;;
26750;SDS011;14345;48.272;25.926;2023-05-28T05:53:13;7.80;;;3.50;;
26750;SDS011;14345;48.272;25.926;2023-05-28T05:55:39;6.00;;;3.03;;
26750;SDS011;14345;48.272;25.926;2023-05-28T05:58:05;8.40;;;3.38;;
26750;SDS011;14345;48.272;25.926;2023-05-28T06:00:31;4.88;;;2.83;;
26750;SDS011;14345;48.272;25.926;2023-05-28T06:02:58;4.45;;;3.05;;
26750;SDS011;14345;48.272;25.926;2023-05-28T06:05:25;5.72;;;2.83;;
26750;SDS011;14345;48.272;25.926;2023-05-28T06:07:51;7.30;;;3.08;;
26750;SDS011;14345;48.272;25.926;2023-05-28T06:10:17;5.55;;;3.13;;
26750;SDS011;14345;48.272;25.926;2023-05-28T06:12:44;5.80;;;2.90;;
26750;SDS011;14345;48.272;25.926;2023-05-28T06:15:10;6.75;;;3.03;;
26750;SDS011;14345;48.272;25.926;2023-05-28T06:17:36;10.73;;;3.78;;
26750;SDS011;14345;48.272;25.926;2023-05-28T06:20:03;4.95;;;3.20;;
26750;SDS011;14345;48.272;25.926;2023-05-28T06:22:31;5.82;;;2.70;;
26750;SDS011;14345;48.272;25.926;2023-05-28T06:24:57;7.47;;;2.88;;
26750;SDS011;14345;48.272;25.926;2023-05-28T06:27:25;5.70;;;3.10;;
26750;SDS011;14345;48.272;25.926;2023-05-28T06:29:52;10.98;;;5.65;;
26750;SDS011;14345;48.272;25.926;2023-05-28T06:32:18;9.38;;;4.10;;
26750;SDS011;14345;48.272;25.926;2023-05-28T06:34:44;10.73;;;3.75;;
26750;SDS011;14345;48.272;25.926;2023-05-28T06:37:11;5.18;;;2.92;;
26750;SDS011;14345;48.272;25.926;2023-05-28T06:39:37;8.68;;;3.58;;
26750;SDS011;14345;48.272;25.926;2023-05-28T06:42:03;6.63;;;2.97;;
26750;SDS011;14345;48.272;25.926;2023-05-28T06:44:30;5.95;;;3.22;;
26750;SDS011;14345;48.272;25.926;2023-05-28T06:46:57;9.32;;;3.50;;
26750;SDS011;14345;48.272;25.926;2023-05-28T06:49:23;8.23;;;2.83;;
26750;SDS011;14345;48.272;25.926;2023-05-28T06:51:49;5.05;;;2.78;;
26750;SDS011;14345;48.272;25.926;2023-05-28T06:54:15;4.30;;;3.08;;
26750;SDS011;14345;48.272;25.926;2023-05-28T06:56:41;7.28;;;3.30;;
26750;SDS011;14345;48.272;25.926;2023-05-28T06:59:07;9.57;;;3.10;;
26750;SDS011;14345;48.272;25.926;2023-05-28T07:01:33;6.95;;;2.67;;
26750;SDS011;14345;48.272;25.926;2023-05-28T07:03:59;6.80;;;2.78;;
26750;SDS011;14345;48.272;25.926;2023-05-28T07:06:25;5.88;;;3.20;;
26750;SDS011;14345;48.272;25.926;2023-05-28T07:08:51;5.38;;;2.53;;
26750;SDS011;14345;48.272;25.926;2023-05-28T07:11:18;4.32;;;2.70;;
26750;SDS011;14345;48.272;25.926;2023-05-28T07:13:44;14.38;;;3.50;;
26750;SDS011;14345;48.272;25.926;2023-05-28T07:16:10;10.93;;;3.50;;
26750;SDS011;14345;48.272;25.926;2023-05-28T07:18:36;5.03;;;2.47;;
26750;SDS011;14345;48.272;25.926;2023-05-28T07:21:03;4.75;;;2.80;;
26750;SDS011;14345;48.272;25.926;2023-05-28T07:23:33;6.55;;;3.10;;
26750;SDS011;14345;48.272;25.926;2023-05-28T07:25:59;5.07;;;3.10;;
26750;SDS011;14345;48.272;25.926;2023-05-28T07:28:25;4.28;;;2.70;;
26750;SDS011;14345;48.272;25.926;2023-05-28T07:30:51;6.03;;;3.13;;
26750;SDS011;14345;48.272;25.926;2023-05-28T07:33:17;5.63;;;3.13;;
26750;SDS011;14345;48.272;25.926;2023-05-28T07:35:43;6.20;;;2.97;;
26750;SDS011;14345;48.272;25.926;2023-05-28T07:38:10;4.13;;;2.70;;
26750;SDS011;14345;48.272;25.926;2023-05-28T07:40:37;5.75;;;2.72;;
26750;SDS011;14345;48.272;25.926;2023-05-28T07:43:03;6.47;;;2.80;;
26750;SDS011;14345;48.272;25.926;2023-05-28T07:45:29;6.05;;;3.47;;
26750;SDS011;14345;48.272;25.926;2023-05-28T07:47:55;5.53;;;3.28;;
26750;SDS011;14345;48.272;25.926;2023-05-28T07:50:22;8.63;;;3.35;;
26750;SDS011;14345;48.272;25.926;2023-05-28T07:52:57;5.38;;;3.20;;
26750;SDS011;14345;48.272;25.926;2023-05-28T07:55:27;16.88;;;3.50;;
26750;SDS011;14345;48.272;25.926;2023-05-28T07:57:53;10.23;;;3.50;;
26750;SDS011;14345;48.272;25.926;2023-05-28T08:00:20;5.43;;;3.25;;
26750;SDS011;14345;48.272;25.926;2023-05-28T08:02:46;4.68;;;3.10;;
26750;SDS011;14345;48.272;25.926;2023-05-28T08:05:12;4.95;;;2.60;;
26750;SDS011;14345;48.272;25.926;2023-05-28T08:07:39;5.57;;;3.20;;
26750;SDS011;14345;48.272;25.926;2023-05-28T08:10:05;4.85;;;2.80;;
26750;SDS011;14345;48.272;25.926;2023-05-28T08:12:32;6.88;;;3.03;;
26750;SDS011;14345;48.272;25.926;2023-05-28T08:14:58;6.15;;;3.17;;
26750;SDS011;14345;48.272;25.926;2023-05-28T08:17:24;5.80;;;2.53;;
26750;SDS011;14345;48.272;25.926;2023-05-28T08:19:55;7.40;;;3.05;;
26750;SDS011;14345;48.272;25.926;2023-05-28T08:22:21;5.80;;;3.33;;
26750;SDS011;14345;48.272;25.926;2023-05-28T08:24:47;8.32;;;3.85;;
26750;SDS011;14345;48.272;25.926;2023-05-28T08:27:13;8.45;;;3.53;;
26750;SDS011;14345;48.272;25.926;2023-05-28T08:29:39;6.78;;;3.40;;
26750;SDS011;14345;48.272;25.926;2023-05-28T08:32:05;7.55;;;3.67;;
26750;SDS011;14345;48.272;25.926;2023-05-28T08:34:32;8.63;;;3.17;;
26750;SDS011;14345;48.272;25.926;2023-05-28T08:37:00;6.90;;;2.72;;
26750;SDS011;14345;48.272;25.926;2023-05-28T08:39:27;10.98;;;3.70;;
26750;SDS011;14345;48.272;25.926;2023-05-28T08:41:53;7.20;;;3.40;;
26750;SDS011;14345;48.272;25.926;2023-05-28T08:44:19;9.57;;;3.42;;
26750;SDS011;14345;48.272;25.926;2023-05-28T08:46:45;8.45;;;3.13;;
26750;SDS011;14345;48.272;25.926;2023-05-28T08:49:11;12.73;;;3.70;;
26750;SDS011;14345;48.272;25.926;2023-05-28T08:51:37;6.75;;;3.78;;
26750;SDS011;14345;48.272;25.926;2023-05-28T08:54:06;5.82;;;2.85;;
26750;SDS011;14345;48.272;25.926;2023-05-28T08:56:33;7.88;;;2.70;;
26750;SDS011;14345;48.272;25.926;2023-05-28T08:58:59;6.50;;;3.25;;
26750;SDS011;14345;48.272;25.926;2023-05-28T09:01:26;6.20;;;3.42;;
26750;SDS011;14345;48.272;25.926;2023-05-28T09:03:52;7.25;;;3.30;;
26750;SDS011;14345;48.272;25.926;2023-05-28T09:06:19;8.25;;;3.40;;
26750;SDS011;14345;48.272;25.926;2023-05-28T09:08:47;7.22;;;2.85;;
26750;SDS011;14345;48.272;25.926;2023-05-28T09:11:14;9.35;;;3.03;;
26750;SDS011;14345;48.272;25.926;2023-05-28T09:13:43;9.15;;;3.05;;
26750;SDS011;14345;48.272;25.926;2023-05-28T09:16:10;7.88;;;3.20;;
26750;SDS011;14345;48.272;25.926;2023-05-28T09:18:36;12.07;;;3.00;;
26750;SDS011;14345;48.272;25.926;2023-05-28T09:21:08;6.72;;;2.70;;
26750;SDS011;14345;48.272;25.926;2023-05-28T09:23:36;6.65;;;2.97;;
26750;SDS011;14345;48.272;25.926;2023-05-28T09:26:02;6.32;;;2.92;;
26750;SDS011;14345;48.272;25.926;2023-05-28T09:28:28;5.72;;;2.65;;
26750;SDS011;14345;48.272;25.926;2023-05-28T09:31:03;6.90;;;3.33;;
26750;SDS011;14345;48.272;25.926;2023-05-28T09:33:31;6.40;;;2.70;;
26750;SDS011;14345;48.272;25.926;2023-05-28T09:35:58;5.70;;;3.20;;
26750;SDS011;14345;48.272;25.926;2023-05-28T09:38:25;4.95;;;2.78;;
26750;SDS011;14345;48.272;25.926;2023-05-28T09:40:52;4.45;;;2.83;;
26750;SDS011;14345;48.272;25.926;2023-05-28T09:43:26;10.05;;;3.20;;
26750;SDS011;14345;48.272;25.926;2023-05-28T09:46:05;5.95;;;2.92;;
26750;SDS011;14345;48.272;25.926;2023-05-28T09:48:31;4.78;;;2.60;;
26750;SDS011;14345;48.272;25.926;2023-05-28T09:50:57;5.40;;;2.70;;
26750;SDS011;14345;48.272;25.926;2023-05-28T09:53:24;6.45;;;3.00;;
26750;SDS011;14345;48.272;25.926;2023-05-28T09:55:50;4.82;;;2.60;;
26750;SDS011;14345;48.272;25.926;2023-05-28T09:58:16;8.70;;;3.00;;
26750;SDS011;14345;48.272;25.926;2023-05-28T10:00:45;8.23;;;3.17;;
26750;SDS011;14345;48.272;25.926;2023-05-28T10:05:39;5.20;;;2.78;;
26750;SDS011;14345;48.272;25.926;2023-05-28T10:08:06;6.63;;;3.10;;
26750;SDS011;14345;48.272;25.926;2023-05-28T10:10:33;6.43;;;3.03;;
26750;SDS011;14345;48.272;25.926;2023-05-28T10:13:01;7.22;;;2.95;;
26750;SDS011;14345;48.272;25.926;2023-05-28T10:15:27;4.40;;;2.50;;
26750;SDS011;14345;48.272;25.926;2023-05-28T10:17:53;7.53;;;2.85;;
26750;SDS011;14345;48.272;25.926;2023-05-28T10:20:20;6.10;;;3.10;;
26750;SDS011;14345;48.272;25.926;2023-05-28T10:22:46;8.00;;;5.18;;
26750;SDS011;14345;48.272;25.926;2023-05-28T10:25:13;12.38;;;6.90;;
26750;SDS011;14345;48.272;25.926;2023-05-28T10:27:43;8.73;;;4.22;;
26750;SDS011;14345;48.272;25.926;2023-05-28T10:30:10;5.13;;;3.45;;
26750;SDS011;14345;48.272;25.926;2023-05-28T10:32:41;4.55;;;3.20;;
26750;SDS011;14345;48.272;25.926;2023-05-28T10:35:10;5.40;;;3.30;;
26750;SDS011;14345;48.272;25.926;2023-05-28T10:37:37;5.88;;;2.80;;
26750;SDS011;14345;48.272;25.926;2023-05-28T10:40:05;5.75;;;3.00;;
26750;SDS011;14345;48.272;25.926;2023-05-28T10:42:32;5.55;;;3.00;;
26750;SDS011;14345;48.272;25.926;2023-05-28T10:45:08;3.22;;;1.90;;
26750;SDS011;14345;48.272;25.926;2023-05-28T10:47:41;5.28;;;2.45;;
26750;SDS011;14345;48.272;25.926;2023-05-28T10:52:36;3.42;;;2.53;;
26750;SDS011;14345;48.272;25.926;2023-05-28T10:55:03;6.50;;;2.50;;
26750;SDS011;14345;48.272;25.926;2023-05-28T10:57:48;3.03;;;2.33;;
26750;SDS011;14345;48.272;25.926;2023-05-28T11:00:24;4.07;;;2.20;;
26750;SDS011;14345;48.272;25.926;2023-05-28T11:02:51;4.38;;;2.47;;
26750;SDS011;14345;48.272;25.926;2023-05-28T11:05:22;5.32;;;2.30;;
26750;SDS011;14345;48.272;25.926;2023-05-28T11:07:49;5.47;;;2.15;;
26750;SDS011;14345;48.272;25.926;2023-05-28T11:10:16;3.38;;;2.17;;
26750;SDS011;14345;48.272;25.926;2023-05-28T11:12:42;3.03;;;2.03;;
26750;SDS011;14345;48.272;25.926;2023-05-28T11:15:10;4.95;;;2.33;;
26750;SDS011;14345;48.272;25.926;2023-05-28T11:17:37;4.65;;;2.50;;
26750;SDS011;14345;48.272;25.926;2023-05-28T11:20:03;2.92;;;2.22;;
26750;SDS011;14345;48.272;25.926;2023-05-28T11:22:34;11.40;;;2.97;;
26750;SDS011;14345;48.272;25.926;2023-05-28T11:25:04;4.53;;;2.50;;
26750;SDS011;14345;48.272;25.926;2023-05-28T11:27:30;5.75;;;2.50;;
26750;SDS011;14345;48.272;25.926;2023-05-28T11:29:59;3.35;;;2.33;;
26750;SDS011;14345;48.272;25.926;2023-05-28T11:32:26;5.22;;;2.00;;
26750;SDS011;14345;48.272;25.926;2023-05-28T11:34:52;5.40;;;2.90;;
26750;SDS011;14345;48.272;25.926;2023-05-28T11:37:22;4.97;;;2.40;;
26750;SDS011;14345;48.272;25.926;2023-05-28T11:39:50;3.05;;;2.10;;
26750;SDS011;14345;48.272;25.926;2023-05-28T11:42:17;4.93;;;2.25;;
26750;SDS011;14345;48.272;25.926;2023-05-28T11:44:44;3.97;;;2.30;;
26750;SDS011;14345;48.272;25.926;2023-05-28T11:47:14;7.60;;;4.00;;
26750;SDS011;14345;48.272;25.926;2023-05-28T11:49:41;4.18;;;2.55;;
26750;SDS011;14345;48.272;25.926;2023-05-28T11:52:14;5.30;;;2.72;;
26750;SDS011;14345;48.272;25.926;2023-05-28T11:54:41;3.92;;;2.30;;
26750;SDS011;14345;48.272;25.926;2023-05-28T11:57:07;2.65;;;2.28;;
26750;SDS011;14345;48.272;25.926;2023-05-28T11:59:34;4.50;;;3.53;;
26750;SDS011;14345;48.272;25.926;2023-05-28T12:02:34;4.15;;;2.60;;
26750;SDS011;14345;48.272;25.926;2023-05-28T12:04:56;5.25;;;2.28;;
26750;SDS011;14345;48.272;25.926;2023-05-28T12:07:32;3.13;;;1.98;;
26750;SDS011;14345;48.272;25.926;2023-05-28T12:10:05;3.22;;;2.40;;
26750;SDS011;14345;48.272;25.926;2023-05-28T12:12:32;5.90;;;2.65;;
26750;SDS011;14345;48.272;25.926;2023-05-28T12:14:58;3.97;;;2.33;;
26750;SDS011;14345;48.272;25.926;2023-05-28T12:17:24;4.90;;;2.15;;
26750;SDS011;14345;48.272;25.926;2023-05-28T12:19:50;5.43;;;2.38;;
26750;SDS011;14345;48.272;25.926;2023-05-28T12:22:16;3.13;;;2.40;;
26750;SDS011;14345;48.272;25.926;2023-05-28T12:24:50;5.80;;;3.97;;
26750;SDS011;14345;48.272;25.926;2023-05-28T12:27:18;3.65;;;2.28;;
26750;SDS011;14345;48.272;25.926;2023-05-28T12:29:44;3.58;;;2.13;;
26750;SDS011;14345;48.272;25.926;2023-05-28T12:32:10;4.15;;;2.42;;
26750;SDS011;14345;48.272;25.926;2023-05-28T12:34:37;3.60;;;2.05;;
26750;SDS011;14345;48.272;25.926;2023-05-28T12:37:03;5.28;;;2.20;;
26750;SDS011;14345;48.272;25.926;2023-05-28T12:39:29;3.45;;;2.40;;
26750;SDS011;14345;48.272;25.926;2023-05-28T12:41:55;6.85;;;2.45;;
26750;SDS011;14345;48.272;25.926;2023-05-28T12:44:21;8.18;;;2.60;;
26750;SDS011;14345;48.272;25.926;2023-05-28T12:46:47;4.93;;;2.55;;
26750;SDS011;14345;48.272;25.926;2023-05-28T12:49:15;4.05;;;2.35;;
26750;SDS011;14345;48.272;25.926;2023-05-28T12:51:41;4.80;;;2.58;;
26750;SDS011;14345;48.272;25.926;2023-05-28T12:54:07;6.28;;;2.58;;
26750;SDS011;14345;48.272;25.926;2023-05-28T12:56:33;2.97;;;2.10;;
26750;SDS011;14345;48.272;25.926;2023-05-28T12:58:59;4.75;;;2.33;;
26750;SDS011;14345;48.272;25.926;2023-05-28T13:01:25;3.78;;;2.08;;
26750;SDS011;14345;48.272;25.926;2023-05-28T13:03:51;5.30;;;2.13;;
26750;SDS011;14345;48.272;25.926;2023-05-28T13:06:17;3.80;;;2.10;;
26750;SDS011;14345;48.272;25.926;2023-05-28T13:08:44;6.25;;;2.38;;
26750;SDS011;14345;48.272;25.926;2023-05-28T13:11:10;3.20;;;2.20;;
26750;SDS011;14345;48.272;25.926;2023-05-28T13:13:39;5.32;;;2.35;;
26750;SDS011;14345;48.272;25.926;2023-05-28T13:16:05;13.48;;;2.50;;
26750;SDS011;14345;48.272;25.926;2023-05-28T13:18:31;10.10;;;2.08;;
26750;SDS011;14345;48.272;25.926;2023-05-28T13:20:57;3.53;;;2.28;;
26750;SDS011;14345;48.272;25.926;2023-05-28T13:23:23;3.67;;;2.53;;
26750;SDS011;14345;48.272;25.926;2023-05-28T13:25:49;6.32;;;2.80;;
26750;SDS011;14345;48.272;25.926;2023-05-28T13:28:16;4.72;;;2.10;;
26750;SDS011;14345;48.272;25.926;2023-05-28T13:30:44;2.85;;;1.88;;
26750;SDS011;14345;48.272;25.926;2023-05-28T13:33:10;4.00;;;2.25;;
26750;SDS011;14345;48.272;25.926;2023-05-28T13:35:36;5.63;;;2.10;;
26750;SDS011;14345;48.272;25.926;2023-05-28T13:38:02;3.33;;;1.80;;
26750;SDS011;14345;48.272;25.926;2023-05-28T13:40:28;3.80;;;1.98;;
26750;SDS011;14345;48.272;25.926;2023-05-28T13:42:54;4.30;;;3.00;;
26750;SDS011;14345;48.272;25.926;2023-05-28T13:45:20;2.42;;;1.90;;
26750;SDS011;14345;48.272;25.926;2023-05-28T13:47:46;2.85;;;2.40;;
26750;SDS011;14345;48.272;25.926;2023-05-28T13:50:13;3.13;;;2.00;;
26750;SDS011;14345;48.272;25.926;2023-05-28T13:52:39;4.90;;;2.40;;
26750;SDS011;14345;48.272;25.926;2023-05-28T13:55:05;4.45;;;2.38;;
26750;SDS011;14345;48.272;25.926;2023-05-28T13:57:32;2.63;;;2.10;;
26750;SDS011;14345;48.272;25.926;2023-05-28T13:59:58;5.20;;;1.95;;
26750;SDS011;14345;48.272;25.926;2023-05-28T14:02:30;3.57;;;1.80;;
26750;SDS011;14345;48.272;25.926;2023-05-28T14:04:56;3.72;;;1.98;;
26750;SDS011;14345;48.272;25.926;2023-05-28T14:07:22;2.67;;;1.83;;
26750;SDS011;14345;48.272;25.926;2023-05-28T14:09:48;4.03;;;2.10;;
26750;SDS011;14345;48.272;25.926;2023-05-28T14:12:15;3.00;;;2.00;;
26750;SDS011;14345;48.272;25.926;2023-05-28T14:14:41;2.95;;;1.75;;
26750;SDS011;14345;48.272;25.926;2023-05-28T14:17:07;2.85;;;1.90;;
26750;SDS011;14345;48.272;25.926;2023-05-28T14:19:33;2.83;;;1.85;;
26750;SDS011;14345;48.272;25.926;2023-05-28T14:21:59;5.32;;;2.03;;
26750;SDS011;14345;48.272;25.926;2023-05-28T14:24:25;3.25;;;1.80;;
26750;SDS011;14345;48.272;25.926;2023-05-28T14:26:51;5.53;;;2.63;;
26750;SDS011;14345;48.272;25.926;2023-05-28T14:29:17;4.07;;;2.30;;
26750;SDS011;14345;48.272;25.926;2023-05-28T14:31:43;3.33;;;1.70;;
26750;SDS011;14345;48.272;25.926;2023-05-28T14:34:09;5.72;;;2.10;;
26750;SDS011;14345;48.272;25.926;2023-05-28T14:36:35;3.38;;;2.13;;
26750;SDS011;14345;48.272;25.926;2023-05-28T14:39:02;2.95;;;2.20;;